sensor_id;sensor_type;location;lat;lon;timestamp;temperature;humidity
13596;DHT22;6868;52.544;13.416;2022-09-17T00:00:32;11.50;99.90
13596;DHT22;6868;52.544;13.416;2022-09-17T00:02:58;11.50;99.90
13596;DHT22;6868;52.544;13.416;2022-09-17T00:05:27;11.50;99.90
13596;DHT22;6868;52.544;13.416;2022-09-17T00:07:54;11.50;99.90
13596;DHT22;6868;52.544;13.416;2022-09-17T00:10:21;11.50;99.90
13596;DHT22;6868;52.544;13.416;2022-09-17T00:12:48;11.50;99.90
13596;DHT22;6868;52.544;13.416;2022-09-17T00:15:15;11.50;99.90
13596;DHT22;6868;52.544;13.416;2022-09-17T00:17:42;11.50;99.90
13596;DHT22;6868;52.544;13.416;2022-09-17T00:20:09;11.50;99.90
13596;DHT22;6868;52.544;13.416;2022-09-17T00:22:39;11.50;99.90
13596;DHT22;6868;52.544;13.416;2022-09-17T00:25:05;11.50;99.90
13596;DHT22;6868;52.544;13.416;2022-09-17T00:27:33;11.60;99.90
13596;DHT22;6868;52.544;13.416;2022-09-17T00:30:00;11.60;99.90
13596;DHT22;6868;52.544;13.416;2022-09-17T00:32:27;11.60;99.90
13596;DHT22;6868;52.544;13.416;2022-09-17T00:34:54;11.60;99.90
13596;DHT22;6868;52.544;13.416;2022-09-17T00:37:21;11.60;99.90
13596;DHT22;6868;52.544;13.416;2022-09-17T00:39:49;11.60;99.90
13596;DHT22;6868;52.544;13.416;2022-09-17T00:42:17;11.70;99.90
13596;DHT22;6868;52.544;13.416;2022-09-17T00:44:45;11.80;99.90
13596;DHT22;6868;52.544;13.416;2022-09-17T00:47:18;11.70;99.90
13596;DHT22;6868;52.544;13.416;2022-09-17T00:49:47;11.70;99.90
13596;DHT22;6868;52.544;13.416;2022-09-17T00:52:16;11.70;99.90
13596;DHT22;6868;52.544;13.416;2022-09-17T00:54:45;11.70;99.90
13596;DHT22;6868;52.544;13.416;2022-09-17T00:57:14;11.70;99.90
13596;DHT22;6868;52.544;13.416;2022-09-17T00:59:42;11.80;99.90
13596;DHT22;6868;52.544;13.416;2022-09-17T01:02:10;11.80;99.90
13596;DHT22;6868;52.544;13.416;2022-09-17T01:04:39;11.80;99.90
13596;DHT22;6868;52.544;13.416;2022-09-17T01:07:08;11.80;99.90
13596;DHT22;6868;52.544;13.416;2022-09-17T01:09:40;11.70;99.90
13596;DHT22;6868;52.544;13.416;2022-09-17T01:12:16;11.80;99.90
13596;DHT22;6868;52.544;13.416;2022-09-17T01:14:55;11.80;99.90
13596;DHT22;6868;52.544;13.416;2022-09-17T01:17:25;11.80;99.90
13596;DHT22;6868;52.544;13.416;2022-09-17T01:22:41;11.80;99.90
13596;DHT22;6868;52.544;13.416;2022-09-17T01:25:19;11.80;99.90
13596;DHT22;6868;52.544;13.416;2022-09-17T01:30:41;11.80;99.90
13596;DHT22;6868;52.544;13.416;2022-09-17T01:33:18;11.80;99.90
13596;DHT22;6868;52.544;13.416;2022-09-17T01:35:51;11.90;99.90
13596;DHT22;6868;52.544;13.416;2022-09-17T01:38:23;11.90;99.90
13596;DHT22;6868;52.544;13.416;2022-09-17T01:40:52;11.80;99.90
13596;DHT22;6868;52.544;13.416;2022-09-17T01:43:22;11.90;99.90
13596;DHT22;6868;52.544;13.416;2022-09-17T01:45:53;11.90;99.90
13596;DHT22;6868;52.544;13.416;2022-09-17T01:48:22;12.00;99.90
13596;DHT22;6868;52.544;13.416;2022-09-17T01:50:51;11.90;99.90
13596;DHT22;6868;52.544;13.416;2022-09-17T01:53:19;11.90;99.90
13596;DHT22;6868;52.544;13.416;2022-09-17T01:55:50;12.00;99.90
13596;DHT22;6868;52.544;13.416;2022-09-17T01:58:19;11.90;99.90
13596;DHT22;6868;52.544;13.416;2022-09-17T02:00:49;11.90;99.90
13596;DHT22;6868;52.544;13.416;2022-09-17T02:03:19;12.00;99.90
13596;DHT22;6868;52.544;13.416;2022-09-17T02:05:47;12.00;99.90
13596;DHT22;6868;52.544;13.416;2022-09-17T02:08:16;11.90;99.90
13596;DHT22;6868;52.544;13.416;2022-09-17T02:10:47;11.90;99.90
13596;DHT22;6868;52.544;13.416;2022-09-17T02:13:15;11.90;99.90
13596;DHT22;6868;52.544;13.416;2022-09-17T02:15:45;11.90;99.90
13596;DHT22;6868;52.544;13.416;2022-09-17T02:18:14;11.90;99.90
13596;DHT22;6868;52.544;13.416;2022-09-17T02:20:53;11.80;99.90
13596;DHT22;6868;52.544;13.416;2022-09-17T02:23:23;11.80;99.90
13596;DHT22;6868;52.544;13.416;2022-09-17T02:25:54;11.90;99.90
13596;DHT22;6868;52.544;13.416;2022-09-17T02:28:23;11.80;99.90
13596;DHT22;6868;52.544;13.416;2022-09-17T02:30:53;11.90;99.90
13596;DHT22;6868;52.544;13.416;2022-09-17T02:33:20;11.90;99.90
13596;DHT22;6868;52.544;13.416;2022-09-17T02:35:51;12.00;99.90
13596;DHT22;6868;52.544;13.416;2022-09-17T02:38:21;11.90;99.90
13596;DHT22;6868;52.544;13.416;2022-09-17T02:40:50;11.90;99.90
13596;DHT22;6868;52.544;13.416;2022-09-17T02:43:20;11.90;99.90
13596;DHT22;6868;52.544;13.416;2022-09-17T02:45:51;11.80;99.90
13596;DHT22;6868;52.544;13.416;2022-09-17T02:48:24;11.80;99.90
13596;DHT22;6868;52.544;13.416;2022-09-17T02:51:00;11.80;99.90
13596;DHT22;6868;52.544;13.416;2022-09-17T02:53:33;11.80;99.90
13596;DHT22;6868;52.544;13.416;2022-09-17T02:56:01;11.80;99.90
13596;DHT22;6868;52.544;13.416;2022-09-17T02:58:31;11.80;99.90
13596;DHT22;6868;52.544;13.416;2022-09-17T03:01:01;11.80;99.90
13596;DHT22;6868;52.544;13.416;2022-09-17T03:03:30;11.80;99.90
13596;DHT22;6868;52.544;13.416;2022-09-17T03:06:02;11.80;99.90
13596;DHT22;6868;52.544;13.416;2022-09-17T03:08:31;11.80;99.90
13596;DHT22;6868;52.544;13.416;2022-09-17T03:10:59;11.80;99.90
13596;DHT22;6868;52.544;13.416;2022-09-17T03:13:26;11.80;99.90
13596;DHT22;6868;52.544;13.416;2022-09-17T03:15:54;11.90;99.90
13596;DHT22;6868;52.544;13.416;2022-09-17T03:18:21;11.90;99.90
13596;DHT22;6868;52.544;13.416;2022-09-17T03:20:48;11.90;99.90
13596;DHT22;6868;52.544;13.416;2022-09-17T03:23:16;11.90;99.90
13596;DHT22;6868;52.544;13.416;2022-09-17T03:25:44;11.90;99.90
13596;DHT22;6868;52.544;13.416;2022-09-17T03:28:11;11.90;99.90
13596;DHT22;6868;52.544;13.416;2022-09-17T03:30:38;11.90;99.90
13596;DHT22;6868;52.544;13.416;2022-09-17T03:33:04;11.90;99.90
13596;DHT22;6868;52.544;13.416;2022-09-17T03:35:31;12.00;99.90
13596;DHT22;6868;52.544;13.416;2022-09-17T03:37:58;12.00;99.90
13596;DHT22;6868;52.544;13.416;2022-09-17T03:40:26;12.10;99.90
13596;DHT22;6868;52.544;13.416;2022-09-17T03:42:53;12.20;99.90
13596;DHT22;6868;52.544;13.416;2022-09-17T03:45:20;12.10;99.90
13596;DHT22;6868;52.544;13.416;2022-09-17T03:47:46;12.10;99.90
13596;DHT22;6868;52.544;13.416;2022-09-17T03:50:13;12.00;99.90
13596;DHT22;6868;52.544;13.416;2022-09-17T03:52:41;12.10;99.90
13596;DHT22;6868;52.544;13.416;2022-09-17T03:55:08;12.00;99.90
13596;DHT22;6868;52.544;13.416;2022-09-17T03:57:37;12.10;99.90
13596;DHT22;6868;52.544;13.416;2022-09-17T04:00:04;12.10;99.90
13596;DHT22;6868;52.544;13.416;2022-09-17T04:02:31;12.10;99.90
13596;DHT22;6868;52.544;13.416;2022-09-17T04:04:58;12.10;99.90
13596;DHT22;6868;52.544;13.416;2022-09-17T04:07:25;12.00;99.90
13596;DHT22;6868;52.544;13.416;2022-09-17T04:09:51;12.10;99.90
13596;DHT22;6868;52.544;13.416;2022-09-17T04:12:18;12.10;99.90
13596;DHT22;6868;52.544;13.416;2022-09-17T04:14:46;12.10;99.90
13596;DHT22;6868;52.544;13.416;2022-09-17T04:17:13;12.10;99.90
13596;DHT22;6868;52.544;13.416;2022-09-17T04:19:42;12.10;99.90
13596;DHT22;6868;52.544;13.416;2022-09-17T04:22:09;12.10;99.90
13596;DHT22;6868;52.544;13.416;2022-09-17T04:24:35;12.10;99.90
13596;DHT22;6868;52.544;13.416;2022-09-17T04:27:02;12.10;99.90
13596;DHT22;6868;52.544;13.416;2022-09-17T04:29:31;12.10;99.90
13596;DHT22;6868;52.544;13.416;2022-09-17T04:32:00;12.10;99.90
13596;DHT22;6868;52.544;13.416;2022-09-17T04:34:27;12.20;99.90
13596;DHT22;6868;52.544;13.416;2022-09-17T04:36:53;12.20;99.90
13596;DHT22;6868;52.544;13.416;2022-09-17T04:39:20;12.20;99.90
13596;DHT22;6868;52.544;13.416;2022-09-17T04:41:47;12.20;99.90
13596;DHT22;6868;52.544;13.416;2022-09-17T04:44:13;12.20;99.90
13596;DHT22;6868;52.544;13.416;2022-09-17T04:46:41;12.20;99.90
13596;DHT22;6868;52.544;13.416;2022-09-17T04:49:09;12.20;99.90
13596;DHT22;6868;52.544;13.416;2022-09-17T04:51:36;12.20;99.90
13596;DHT22;6868;52.544;13.416;2022-09-17T04:54:03;12.30;99.90
13596;DHT22;6868;52.544;13.416;2022-09-17T04:56:30;12.20;99.90
13596;DHT22;6868;52.544;13.416;2022-09-17T04:58:56;12.20;99.90
13596;DHT22;6868;52.544;13.416;2022-09-17T05:01:23;12.30;99.90
13596;DHT22;6868;52.544;13.416;2022-09-17T05:03:50;12.30;99.90
13596;DHT22;6868;52.544;13.416;2022-09-17T05:06:18;12.30;99.90
13596;DHT22;6868;52.544;13.416;2022-09-17T05:08:44;12.30;99.90
13596;DHT22;6868;52.544;13.416;2022-09-17T05:11:11;12.30;99.90
13596;DHT22;6868;52.544;13.416;2022-09-17T05:13:38;12.30;99.90
13596;DHT22;6868;52.544;13.416;2022-09-17T05:16:04;12.30;99.90
13596;DHT22;6868;52.544;13.416;2022-09-17T05:18:31;12.40;99.90
13596;DHT22;6868;52.544;13.416;2022-09-17T05:20:58;12.40;99.90
13596;DHT22;6868;52.544;13.416;2022-09-17T05:23:26;12.30;99.90
13596;DHT22;6868;52.544;13.416;2022-09-17T05:25:56;12.40;99.90
13596;DHT22;6868;52.544;13.416;2022-09-17T05:28:22;12.40;99.90
13596;DHT22;6868;52.544;13.416;2022-09-17T05:30:49;12.40;99.90
13596;DHT22;6868;52.544;13.416;2022-09-17T05:33:16;12.40;99.90
13596;DHT22;6868;52.544;13.416;2022-09-17T05:35:43;12.40;99.90
13596;DHT22;6868;52.544;13.416;2022-09-17T05:38:11;12.50;99.90
13596;DHT22;6868;52.544;13.416;2022-09-17T05:40:42;12.50;99.90
13596;DHT22;6868;52.544;13.416;2022-09-17T05:43:11;12.50;99.90
13596;DHT22;6868;52.544;13.416;2022-09-17T05:45:37;12.60;99.90
13596;DHT22;6868;52.544;13.416;2022-09-17T05:48:05;12.50;99.90
13596;DHT22;6868;52.544;13.416;2022-09-17T05:50:32;12.60;99.90
13596;DHT22;6868;52.544;13.416;2022-09-17T05:53:02;12.60;99.90
13596;DHT22;6868;52.544;13.416;2022-09-17T05:55:29;12.70;99.90
13596;DHT22;6868;52.544;13.416;2022-09-17T05:57:57;12.60;99.90
13596;DHT22;6868;52.544;13.416;2022-09-17T06:00:24;12.70;99.90
13596;DHT22;6868;52.544;13.416;2022-09-17T06:02:53;12.90;99.90
13596;DHT22;6868;52.544;13.416;2022-09-17T06:05:19;12.80;99.90
13596;DHT22;6868;52.544;13.416;2022-09-17T06:07:46;12.80;99.90
13596;DHT22;6868;52.544;13.416;2022-09-17T06:10:13;12.90;99.90
13596;DHT22;6868;52.544;13.416;2022-09-17T06:12:42;12.90;99.90
13596;DHT22;6868;52.544;13.416;2022-09-17T06:15:10;12.90;99.90
13596;DHT22;6868;52.544;13.416;2022-09-17T06:17:39;12.90;99.90
13596;DHT22;6868;52.544;13.416;2022-09-17T06:20:06;12.90;99.90
13596;DHT22;6868;52.544;13.416;2022-09-17T06:22:33;12.90;99.90
13596;DHT22;6868;52.544;13.416;2022-09-17T06:25:00;12.90;99.90
13596;DHT22;6868;52.544;13.416;2022-09-17T06:27:29;12.90;99.90
13596;DHT22;6868;52.544;13.416;2022-09-17T06:29:56;12.90;99.90
13596;DHT22;6868;52.544;13.416;2022-09-17T06:32:24;12.90;99.90
13596;DHT22;6868;52.544;13.416;2022-09-17T06:34:51;12.90;99.90
13596;DHT22;6868;52.544;13.416;2022-09-17T06:37:18;13.00;99.90
13596;DHT22;6868;52.544;13.416;2022-09-17T06:39:45;12.90;99.90
13596;DHT22;6868;52.544;13.416;2022-09-17T06:42:12;12.90;99.90
13596;DHT22;6868;52.544;13.416;2022-09-17T06:44:38;13.00;99.90
13596;DHT22;6868;52.544;13.416;2022-09-17T06:47:08;13.10;99.90
13596;DHT22;6868;52.544;13.416;2022-09-17T06:49:36;13.10;99.90
13596;DHT22;6868;52.544;13.416;2022-09-17T06:52:03;13.10;99.90
13596;DHT22;6868;52.544;13.416;2022-09-17T06:54:29;13.00;99.90
13596;DHT22;6868;52.544;13.416;2022-09-17T06:56:56;13.00;99.90
13596;DHT22;6868;52.544;13.416;2022-09-17T06:59:23;13.10;99.90
13596;DHT22;6868;52.544;13.416;2022-09-17T07:01:51;13.10;99.90
13596;DHT22;6868;52.544;13.416;2022-09-17T07:04:17;13.10;99.90
13596;DHT22;6868;52.544;13.416;2022-09-17T07:06:45;13.20;99.90
13596;DHT22;6868;52.544;13.416;2022-09-17T07:09:12;13.10;99.90
13596;DHT22;6868;52.544;13.416;2022-09-17T07:11:39;13.10;99.90
13596;DHT22;6868;52.544;13.416;2022-09-17T07:14:05;13.10;99.90
13596;DHT22;6868;52.544;13.416;2022-09-17T07:16:32;13.10;99.90
13596;DHT22;6868;52.544;13.416;2022-09-17T07:19:01;13.00;99.90
13596;DHT22;6868;52.544;13.416;2022-09-17T07:21:27;13.00;99.90
13596;DHT22;6868;52.544;13.416;2022-09-17T07:23:55;13.00;99.90
13596;DHT22;6868;52.544;13.416;2022-09-17T07:26:23;13.10;99.90
13596;DHT22;6868;52.544;13.416;2022-09-17T07:28:51;13.10;99.90
13596;DHT22;6868;52.544;13.416;2022-09-17T07:31:18;13.10;99.90
13596;DHT22;6868;52.544;13.416;2022-09-17T07:33:45;13.20;99.90
13596;DHT22;6868;52.544;13.416;2022-09-17T07:36:12;13.30;99.90
13596;DHT22;6868;52.544;13.416;2022-09-17T07:38:39;13.40;99.90
13596;DHT22;6868;52.544;13.416;2022-09-17T07:41:08;13.40;99.90
13596;DHT22;6868;52.544;13.416;2022-09-17T07:43:37;13.40;99.90
13596;DHT22;6868;52.544;13.416;2022-09-17T07:46:04;13.40;99.90
13596;DHT22;6868;52.544;13.416;2022-09-17T07:48:31;13.50;99.90
13596;DHT22;6868;52.544;13.416;2022-09-17T07:50:58;13.40;99.90
13596;DHT22;6868;52.544;13.416;2022-09-17T07:53:25;13.50;99.90
13596;DHT22;6868;52.544;13.416;2022-09-17T07:55:54;13.50;99.90
13596;DHT22;6868;52.544;13.416;2022-09-17T07:58:27;13.50;99.90
13596;DHT22;6868;52.544;13.416;2022-09-17T08:00:58;13.40;99.90
13596;DHT22;6868;52.544;13.416;2022-09-17T08:03:25;13.40;99.90
13596;DHT22;6868;52.544;13.416;2022-09-17T08:05:52;13.50;99.90
13596;DHT22;6868;52.544;13.416;2022-09-17T08:08:19;13.40;99.90
13596;DHT22;6868;52.544;13.416;2022-09-17T08:10:46;13.50;99.90
13596;DHT22;6868;52.544;13.416;2022-09-17T08:13:13;13.50;99.90
13596;DHT22;6868;52.544;13.416;2022-09-17T08:15:41;13.70;99.90
13596;DHT22;6868;52.544;13.416;2022-09-17T08:18:08;13.90;99.90
13596;DHT22;6868;52.544;13.416;2022-09-17T08:20:35;13.90;99.90
13596;DHT22;6868;52.544;13.416;2022-09-17T08:23:02;14.00;99.90
13596;DHT22;6868;52.544;13.416;2022-09-17T08:25:29;14.20;99.90
13596;DHT22;6868;52.544;13.416;2022-09-17T08:27:56;14.30;99.90
13596;DHT22;6868;52.544;13.416;2022-09-17T08:30:23;14.40;99.90
13596;DHT22;6868;52.544;13.416;2022-09-17T08:32:51;14.40;99.90
13596;DHT22;6868;52.544;13.416;2022-09-17T08:35:20;14.50;99.90
13596;DHT22;6868;52.544;13.416;2022-09-17T08:37:51;14.60;99.90
13596;DHT22;6868;52.544;13.416;2022-09-17T08:40:19;14.60;99.90
13596;DHT22;6868;52.544;13.416;2022-09-17T08:42:50;14.60;99.90
13596;DHT22;6868;52.544;13.416;2022-09-17T08:45:22;14.60;99.90
13596;DHT22;6868;52.544;13.416;2022-09-17T08:47:51;14.50;99.90
13596;DHT22;6868;52.544;13.416;2022-09-17T08:50:24;14.40;99.90
13596;DHT22;6868;52.544;13.416;2022-09-17T08:52:58;14.60;99.90
13596;DHT22;6868;52.544;13.416;2022-09-17T08:55:32;14.80;99.90
13596;DHT22;6868;52.544;13.416;2022-09-17T08:58:05;14.90;99.90
13596;DHT22;6868;52.544;13.416;2022-09-17T09:00:38;14.80;99.90
13596;DHT22;6868;52.544;13.416;2022-09-17T09:03:12;14.80;99.90
13596;DHT22;6868;52.544;13.416;2022-09-17T09:05:43;14.90;99.90
13596;DHT22;6868;52.544;13.416;2022-09-17T09:08:12;14.90;99.90
13596;DHT22;6868;52.544;13.416;2022-09-17T09:10:41;14.70;99.90
13596;DHT22;6868;52.544;13.416;2022-09-17T09:13:10;14.80;99.90
13596;DHT22;6868;52.544;13.416;2022-09-17T09:15:39;14.90;99.90
13596;DHT22;6868;52.544;13.416;2022-09-17T09:18:14;15.10;99.90
13596;DHT22;6868;52.544;13.416;2022-09-17T09:20:46;15.00;99.90
13596;DHT22;6868;52.544;13.416;2022-09-17T09:23:16;15.30;99.90
13596;DHT22;6868;52.544;13.416;2022-09-17T09:25:47;15.30;99.90
13596;DHT22;6868;52.544;13.416;2022-09-17T09:28:20;15.20;99.90
13596;DHT22;6868;52.544;13.416;2022-09-17T09:30:55;15.10;99.90
13596;DHT22;6868;52.544;13.416;2022-09-17T09:33:29;14.90;99.90
13596;DHT22;6868;52.544;13.416;2022-09-17T09:35:57;14.80;99.90
13596;DHT22;6868;52.544;13.416;2022-09-17T09:38:28;14.80;99.90
13596;DHT22;6868;52.544;13.416;2022-09-17T09:40:57;15.00;99.90
13596;DHT22;6868;52.544;13.416;2022-09-17T09:43:28;15.30;99.90
13596;DHT22;6868;52.544;13.416;2022-09-17T09:46:00;15.40;99.90
13596;DHT22;6868;52.544;13.416;2022-09-17T09:48:32;15.20;99.90
13596;DHT22;6868;52.544;13.416;2022-09-17T09:51:07;15.00;99.90
13596;DHT22;6868;52.544;13.416;2022-09-17T09:53:39;14.90;99.90
13596;DHT22;6868;52.544;13.416;2022-09-17T09:56:15;14.90;99.90
13596;DHT22;6868;52.544;13.416;2022-09-17T09:58:46;15.10;99.90
13596;DHT22;6868;52.544;13.416;2022-09-17T10:01:13;15.20;99.90
13596;DHT22;6868;52.544;13.416;2022-09-17T10:03:43;15.20;99.90
13596;DHT22;6868;52.544;13.416;2022-09-17T10:06:13;15.10;99.90
13596;DHT22;6868;52.544;13.416;2022-09-17T10:08:41;14.90;99.90
13596;DHT22;6868;52.544;13.416;2022-09-17T10:11:15;14.80;99.90
13596;DHT22;6868;52.544;13.416;2022-09-17T10:13:45;14.90;99.90
13596;DHT22;6868;52.544;13.416;2022-09-17T10:16:15;15.20;99.90
13596;DHT22;6868;52.544;13.416;2022-09-17T10:18:44;15.30;99.90
13596;DHT22;6868;52.544;13.416;2022-09-17T10:21:17;15.50;99.90
13596;DHT22;6868;52.544;13.416;2022-09-17T10:23:44;15.30;99.90
13596;DHT22;6868;52.544;13.416;2022-09-17T10:26:18;15.40;99.90
13596;DHT22;6868;52.544;13.416;2022-09-17T10:28:47;15.50;99.90
